createdAt,value
2017-03-12T00:00:22.117Z,0
2017-03-12T00:01:22.298Z,0
2017-03-12T00:02:21.932Z,0
2017-03-12T00:03:21.968Z,0
2017-03-12T00:04:21.961Z,0
2017-03-12T00:05:22.646Z,0
2017-03-12T00:06:22.431Z,0
2017-03-12T00:07:22.476Z,0
2017-03-12T00:08:22.517Z,0
2017-03-12T00:09:22.137Z,0
2017-03-12T00:10:22.401Z,0
2017-03-12T00:11:21.812Z,0
2017-03-12T00:12:22.607Z,0
2017-03-12T00:13:22.630Z,0
2017-03-12T00:14:23.059Z,0
2017-03-12T00:15:22.537Z,0
2017-03-12T00:16:23.113Z,0
2017-03-12T00:17:23.131Z,0
2017-03-12T00:18:23.192Z,0
2017-03-12T00:19:22.791Z,0
2017-03-12T00:20:22.668Z,0
2017-03-12T00:21:23.242Z,0
2017-03-12T00:22:22.487Z,0
2017-03-12T00:23:22.898Z,0
2017-03-12T00:24:22.149Z,0
2017-03-12T00:25:22.169Z,0
2017-03-12T00:26:22.585Z,0
2017-03-12T00:27:23.031Z,0
2017-03-12T00:28:23.045Z,0
2017-03-12T00:29:22.689Z,0
2017-03-12T00:30:23.513Z,0
2017-03-12T00:31:23.116Z,0
2017-03-12T00:32:22.356Z,0
2017-03-12T00:33:22.782Z,0
2017-03-12T00:34:22.812Z,0
2017-03-12T00:35:22.841Z,0
2017-03-12T00:36:23.133Z,0
2017-03-12T00:37:22.901Z,0
2017-03-12T00:38:23.335Z,0
2017-03-12T00:39:23.363Z,0
2017-03-12T00:40:23.380Z,0
2017-03-12T00:41:24.049Z,0
2017-03-12T00:42:23.847Z,0
2017-03-12T00:43:23.882Z,0
2017-03-12T00:44:23.895Z,0
2017-03-12T00:45:22.732Z,0
2017-03-12T00:46:23.007Z,0
2017-03-12T00:47:23.589Z,0
2017-03-12T00:48:23.593Z,0
2017-03-12T00:49:23.245Z,0
2017-03-12T00:50:23.653Z,0
2017-03-12T00:51:24.371Z,0
2017-03-12T00:52:23.697Z,0
2017-03-12T00:53:23.730Z,0
2017-03-12T00:54:23.762Z,0
2017-03-12T00:55:23.390Z,0
2017-03-12T00:56:24.069Z,0
2017-03-12T00:57:23.848Z,0
2017-03-12T00:58:23.868Z,0
2017-03-12T00:59:23.883Z,0
2017-03-12T01:00:23.934Z,0
2017-03-12T01:01:24.208Z,0
2017-03-12T01:02:24.392Z,0
2017-03-12T01:03:24.425Z,0
2017-03-12T01:04:24.041Z,0
2017-03-12T01:05:24.474Z,0
2017-03-12T01:06:24.366Z,0
2017-03-12T01:07:24.124Z,0
2017-03-12T01:08:24.168Z,0
2017-03-12T01:09:24.590Z,0
2017-03-12T01:10:24.206Z,0
2017-03-12T01:11:23.718Z,0
2017-03-12T01:12:24.262Z,0
2017-03-12T01:13:24.705Z,0
2017-03-12T01:14:24.718Z,0
2017-03-12T01:15:24.346Z,0
2017-03-12T01:16:24.239Z,0
2017-03-12T01:17:24.395Z,0
2017-03-12T01:18:24.035Z,0
2017-03-12T01:19:24.057Z,0
2017-03-12T01:20:24.490Z,0
2017-03-12T01:21:24.367Z,0
2017-03-12T01:22:24.526Z,0
2017-03-12T01:23:24.162Z,0
2017-03-12T01:24:24.204Z,0
2017-03-12T01:25:25.013Z,0
2017-03-12T01:26:24.890Z,0
2017-03-12T01:27:24.671Z,0
2017-03-12T01:28:23.948Z,0
2017-03-12T01:29:25.132Z,0
2017-03-12T01:30:24.369Z,0
2017-03-12T01:31:24.644Z,0
2017-03-12T01:32:24.038Z,0
2017-03-12T01:33:24.456Z,0
2017-03-12T01:34:24.873Z,0
2017-03-12T01:35:25.296Z,0
2017-03-12T01:36:25.566Z,0
2017-03-12T01:37:24.570Z,0
2017-03-12T01:38:25.379Z,0
2017-03-12T01:39:25.424Z,0
2017-03-12T01:40:25.432Z,0
2017-03-12T01:41:24.926Z,0
2017-03-12T01:42:25.490Z,0
2017-03-12T01:43:24.723Z,0
2017-03-12T01:44:24.768Z,0
2017-03-12T01:45:25.167Z,0
2017-03-12T01:46:25.848Z,0
2017-03-12T01:47:25.617Z,0
2017-03-12T01:48:25.659Z,0
2017-03-12T01:49:25.679Z,0
2017-03-12T01:50:25.744Z,0
2017-03-12T01:51:25.183Z,0
2017-03-12T01:52:25.394Z,0
2017-03-12T01:53:25.378Z,0
2017-03-12T01:54:25.012Z,0
2017-03-12T01:55:25.868Z,0
2017-03-12T01:56:24.925Z,0
2017-03-12T01:57:25.510Z,0
2017-03-12T01:58:25.532Z,0
2017-03-12T01:59:25.958Z,0
2017-03-12T02:00:25.976Z,0
2017-03-12T02:01:25.468Z,0
2017-03-12T02:02:25.645Z,0
2017-03-12T02:03:25.656Z,0
2017-03-12T02:04:25.290Z,0
2017-03-12T02:05:25.314Z,0
2017-03-12T02:06:25.984Z,0
2017-03-12T02:07:25.393Z,0
2017-03-12T02:08:25.398Z,0
2017-03-12T02:09:25.458Z,0
2017-03-12T02:10:26.291Z,0
2017-03-12T02:11:26.528Z,0
2017-03-12T02:12:25.940Z,0
2017-03-12T02:13:25.537Z,0
2017-03-12T02:14:25.562Z,0
2017-03-12T02:15:26.392Z,0
2017-03-12T02:16:25.888Z,0
2017-03-12T02:17:25.648Z,0
2017-03-12T02:18:26.076Z,0
2017-03-12T02:19:25.742Z,0
2017-03-12T02:20:26.532Z,0
2017-03-12T02:21:26.804Z,0
2017-03-12T02:22:26.575Z,0
2017-03-12T02:23:25.808Z,0
2017-03-12T02:24:26.253Z,0
2017-03-12T02:25:26.266Z,0
2017-03-12T02:26:25.778Z,0
2017-03-12T02:27:26.325Z,0
2017-03-12T02:28:25.953Z,0
2017-03-12T02:29:26.381Z,0
2017-03-12T02:30:26.411Z,0
2017-03-12T02:31:27.095Z,0
2017-03-12T02:32:26.872Z,0
2017-03-12T02:33:26.505Z,0
2017-03-12T02:34:26.104Z,0
2017-03-12T02:35:26.546Z,0
2017-03-12T02:36:26.415Z,0
2017-03-12T02:37:26.195Z,0
2017-03-12T02:38:27.032Z,0
2017-03-12T02:39:26.277Z,0
2017-03-12T02:40:26.666Z,0
2017-03-12T02:41:26.958Z,0
2017-03-12T02:42:27.122Z,0
2017-03-12T02:43:26.750Z,0
2017-03-12T02:44:26.785Z,0
2017-03-12T02:45:26.413Z,0
2017-03-12T02:46:26.722Z,0
2017-03-12T02:47:27.250Z,0
2017-03-12T02:48:26.497Z,0
2017-03-12T02:49:26.936Z,0
2017-03-12T02:50:26.980Z,0
2017-03-12T02:51:27.245Z,0
2017-03-12T02:52:26.611Z,0
2017-03-12T02:53:27.027Z,0
2017-03-12T02:54:27.064Z,0
2017-03-12T02:55:27.481Z,0
2017-03-12T02:56:27.758Z,0
2017-03-12T02:57:26.761Z,0
2017-03-12T02:58:27.171Z,0
2017-03-12T02:59:26.395Z,0
2017-03-12T03:00:27.240Z,0
2017-03-12T03:01:26.845Z,0
2017-03-12T03:02:26.894Z,0
2017-03-12T03:03:26.903Z,0
2017-03-12T03:04:27.336Z,0
2017-03-12T03:05:27.359Z,0
2017-03-12T03:06:27.769Z,0
2017-03-12T03:07:27.811Z,0
2017-03-12T03:08:27.072Z,0
2017-03-12T03:09:27.471Z,0
2017-03-12T03:10:27.099Z,0
2017-03-12T03:11:27.113Z,0
2017-03-12T03:12:27.405Z,0
2017-03-12T03:13:27.186Z,0
2017-03-12T03:14:27.587Z,0
2017-03-12T03:15:27.235Z,0
2017-03-12T03:16:28.068Z,0
2017-03-12T03:17:27.933Z,0
2017-03-12T03:18:28.109Z,0
2017-03-12T03:19:27.747Z,0
2017-03-12T03:20:27.355Z,0
2017-03-12T03:21:27.008Z,0
2017-03-12T03:22:27.676Z,0
2017-03-12T03:23:27.461Z,0
2017-03-12T03:24:27.871Z,0
2017-03-12T03:25:27.518Z,0
2017-03-12T03:26:27.940Z,0
2017-03-12T03:27:28.629Z,0
2017-03-12T03:28:27.994Z,0
2017-03-12T03:29:28.394Z,0
2017-03-12T03:30:27.658Z,0
2017-03-12T03:31:28.459Z,0
2017-03-12T03:32:28.376Z,0
2017-03-12T03:33:27.753Z,0
2017-03-12T03:34:27.770Z,0
2017-03-12T03:35:28.584Z,0
2017-03-12T03:36:27.807Z,0
2017-03-12T03:37:27.700Z,0
2017-03-12T03:38:28.664Z,0
2017-03-12T03:39:28.718Z,0
2017-03-12T03:40:28.318Z,0
2017-03-12T03:41:27.930Z,0
2017-03-12T03:42:29.051Z,0
2017-03-12T03:43:28.383Z,0
2017-03-12T03:44:28.013Z,0
2017-03-12T03:45:28.838Z,0
2017-03-12T03:46:28.879Z,0
2017-03-12T03:47:28.346Z,0
2017-03-12T03:48:28.515Z,0
2017-03-12T03:49:28.553Z,0
2017-03-12T03:50:28.594Z,0
2017-03-12T03:51:28.613Z,0
2017-03-12T03:52:29.284Z,0
2017-03-12T03:53:28.259Z,0
2017-03-12T03:54:29.093Z,0
2017-03-12T03:55:28.321Z,0
2017-03-12T03:56:28.756Z,0
2017-03-12T03:57:28.218Z,0
2017-03-12T03:58:28.387Z,0
2017-03-12T03:59:28.816Z,0
2017-03-12T04:00:29.241Z,0
2017-03-12T04:01:28.881Z,0
2017-03-12T04:02:28.774Z,0
2017-03-12T04:03:29.311Z,0
2017-03-12T04:04:28.968Z,0
2017-03-12T04:05:28.192Z,0
2017-03-12T04:06:29.019Z,0
2017-03-12T04:07:28.886Z,0
2017-03-12T04:08:29.062Z,0
2017-03-12T04:09:29.083Z,0
2017-03-12T04:10:29.125Z,0
2017-03-12T04:11:29.545Z,0
2017-03-12T04:12:29.823Z,0
2017-03-12T04:13:29.205Z,0
2017-03-12T04:14:29.214Z,0
2017-03-12T04:15:28.468Z,0
2017-03-12T04:16:28.884Z,0
2017-03-12T04:17:29.176Z,0
2017-03-12T04:18:28.930Z,0
2017-03-12T04:19:29.357Z,0
2017-03-12T04:20:29.387Z,0
2017-03-12T04:21:29.820Z,0
2017-03-12T04:22:30.096Z,0
2017-03-12T04:23:29.473Z,0
2017-03-12T04:24:28.690Z,0
2017-03-12T04:25:29.127Z,0
2017-03-12T04:26:29.580Z,0
2017-03-12T04:27:29.837Z,0
2017-03-12T04:28:30.001Z,0
2017-03-12T04:29:29.242Z,0
2017-03-12T04:30:29.654Z,0
2017-03-12T04:31:30.096Z,0
2017-03-12T04:32:29.988Z,0
2017-03-12T04:33:29.729Z,0
2017-03-12T04:34:29.768Z,0
2017-03-12T04:35:29.793Z,0
2017-03-12T04:36:29.033Z,0
2017-03-12T04:37:29.714Z,0
2017-03-12T04:38:29.876Z,0
2017-03-12T04:39:29.886Z,0
2017-03-12T04:40:29.151Z,0
2017-03-12T04:41:29.563Z,0
2017-03-12T04:42:29.836Z,0
2017-03-12T04:43:30.016Z,0
2017-03-12T04:44:30.033Z,0
2017-03-12T04:45:29.654Z,0
2017-03-12T04:46:30.107Z,0
2017-03-12T04:47:29.985Z,0
2017-03-12T04:48:30.140Z,0
2017-03-12T04:49:30.169Z,0
2017-03-12T04:50:30.198Z,0
2017-03-12T04:51:30.214Z,0
2017-03-12T04:52:30.494Z,0
2017-03-12T04:53:30.290Z,0
2017-03-12T04:54:30.304Z,0
2017-03-12T04:55:30.310Z,0
2017-03-12T04:56:30.346Z,0
2017-03-12T04:57:29.994Z,0
2017-03-12T04:58:30.427Z,0
2017-03-12T04:59:30.452Z,0
2017-03-12T05:00:30.101Z,0
2017-03-12T05:01:29.726Z,0
2017-03-12T05:02:30.517Z,0
2017-03-12T05:03:30.543Z,0
2017-03-12T05:04:30.576Z,0
2017-03-12T05:05:30.595Z,0
2017-03-12T05:06:30.626Z,0
2017-03-12T05:07:30.265Z,0
2017-03-12T05:08:30.323Z,0
2017-03-12T05:09:31.124Z,0
2017-03-12T05:10:30.765Z,0
2017-03-12T05:11:31.153Z,0
2017-03-12T05:12:30.410Z,0
2017-03-12T05:13:30.815Z,0
2017-03-12T05:14:30.869Z,0
2017-03-12T05:15:30.859Z,0
2017-03-12T05:16:30.881Z,0
2017-03-12T05:17:30.123Z,0
2017-03-12T05:18:30.810Z,0
2017-03-12T05:19:30.176Z,0
2017-03-12T05:20:30.207Z,0
2017-03-12T05:21:31.038Z,0
2017-03-12T05:22:31.456Z,0
2017-03-12T05:23:30.934Z,0
2017-03-12T05:24:31.111Z,0
2017-03-12T05:25:31.136Z,0
2017-03-12T05:26:31.569Z,0
2017-03-12T05:27:31.192Z,0
2017-03-12T05:28:31.075Z,0
2017-03-12T05:29:31.658Z,0
2017-03-12T05:30:30.863Z,0
2017-03-12T05:31:31.305Z,4
2017-03-12T05:32:30.528Z,4
2017-03-12T05:33:31.619Z,0
2017-03-12T05:34:30.974Z,4
2017-03-12T05:35:31.803Z,4
2017-03-12T05:36:31.845Z,4
2017-03-12T05:37:31.859Z,8
2017-03-12T05:38:31.745Z,4
2017-03-12T05:39:30.725Z,8
2017-03-12T05:40:31.130Z,8
2017-03-12T05:41:31.163Z,12
2017-03-12T05:42:31.985Z,12
2017-03-12T05:43:31.465Z,12
2017-03-12T05:44:32.050Z,16
2017-03-12T05:45:31.301Z,20
2017-03-12T05:46:31.691Z,24
2017-03-12T05:47:32.134Z,28
2017-03-12T05:48:31.988Z,28
2017-03-12T05:49:31.780Z,32
2017-03-12T05:50:31.814Z,32
2017-03-12T05:51:31.434Z,40
2017-03-12T05:52:31.867Z,40
2017-03-12T05:53:31.748Z,48
2017-03-12T05:54:31.909Z,48
2017-03-12T05:55:31.145Z,52
2017-03-12T05:56:31.985Z,56
2017-03-12T05:57:32.002Z,60
2017-03-12T05:58:32.668Z,64
2017-03-12T05:59:32.437Z,68
2017-03-12T06:00:32.458Z,76
2017-03-12T06:01:32.113Z,76
2017-03-12T06:02:32.515Z,84
2017-03-12T06:03:32.032Z,88
2017-03-12T06:04:31.796Z,92
2017-03-12T06:05:31.833Z,100
2017-03-12T06:06:32.252Z,100
2017-03-12T06:07:31.874Z,108
2017-03-12T06:08:32.136Z,112
2017-03-12T06:09:31.535Z,120
2017-03-12T06:10:32.732Z,124
2017-03-12T06:11:32.766Z,128
2017-03-12T06:12:32.795Z,132
2017-03-12T06:13:32.683Z,140
2017-03-12T06:14:32.456Z,144
2017-03-12T06:15:32.114Z,152
2017-03-12T06:16:32.113Z,156
2017-03-12T06:17:32.546Z,160
2017-03-12T06:18:32.801Z,172
2017-03-12T06:19:32.579Z,176
2017-03-12T06:20:32.629Z,184
2017-03-12T06:21:31.849Z,184
2017-03-12T06:22:33.062Z,192
2017-03-12T06:23:33.351Z,200
2017-03-12T06:24:33.123Z,208
2017-03-12T06:25:33.155Z,216
2017-03-12T06:26:32.384Z,220
2017-03-12T06:27:32.809Z,228
2017-03-12T06:28:32.681Z,236
2017-03-12T06:29:32.859Z,240
2017-03-12T06:30:32.884Z,248
2017-03-12T06:31:32.520Z,256
2017-03-12T06:32:32.958Z,264
2017-03-12T06:33:33.205Z,272
2017-03-12T06:34:32.998Z,284
2017-03-12T06:35:33.408Z,288
2017-03-12T06:36:33.063Z,300
2017-03-12T06:37:33.477Z,308
2017-03-12T06:38:33.361Z,316
2017-03-12T06:39:32.726Z,324
2017-03-12T06:40:33.536Z,336
2017-03-12T06:41:32.772Z,348
2017-03-12T06:42:32.809Z,356
2017-03-12T06:43:33.489Z,368
2017-03-12T06:44:33.253Z,376
2017-03-12T06:45:33.294Z,388
2017-03-12T06:46:32.553Z,400
2017-03-12T06:47:33.735Z,412
2017-03-12T06:48:33.376Z,424
2017-03-12T06:49:33.386Z,440
2017-03-12T06:50:33.423Z,452
2017-03-12T06:51:32.703Z,468
2017-03-12T06:52:33.500Z,484
2017-03-12T06:53:32.701Z,496
2017-03-12T06:54:33.439Z,516
2017-03-12T06:55:32.758Z,532
2017-03-12T06:56:32.801Z,552
2017-03-12T06:57:33.236Z,572
2017-03-12T06:58:33.231Z,592
2017-03-12T06:59:33.533Z,616
2017-03-12T07:00:33.306Z,636
2017-03-12T07:01:33.740Z,660
2017-03-12T07:02:34.144Z,688
2017-03-12T07:03:33.384Z,712
2017-03-12T07:04:34.444Z,740
2017-03-12T07:05:33.839Z,764
2017-03-12T07:06:33.853Z,792
2017-03-12T07:07:33.480Z,828
2017-03-12T07:08:33.112Z,864
2017-03-12T07:09:33.781Z,916
2017-03-12T07:10:33.566Z,988
2017-03-12T07:11:33.999Z,1140
2017-03-12T07:12:34.023Z,1364
2017-03-12T07:13:33.260Z,1556
2017-03-12T07:14:34.316Z,1692
2017-03-12T07:15:34.489Z,1776
2017-03-12T07:16:34.522Z,1832
2017-03-12T07:17:33.375Z,1908
2017-03-12T07:18:33.400Z,1984
2017-03-12T07:19:34.068Z,2088
2017-03-12T07:20:34.245Z,2172
2017-03-12T07:21:33.886Z,2256
2017-03-12T07:22:34.698Z,2312
2017-03-12T07:23:34.328Z,2372
2017-03-12T07:24:34.204Z,2444
2017-03-12T07:25:34.394Z,2524
2017-03-12T07:26:34.806Z,2552
2017-03-12T07:27:34.833Z,2620
2017-03-12T07:28:34.468Z,2660
2017-03-12T07:29:34.748Z,2672
2017-03-12T07:30:34.125Z,2660
2017-03-12T07:31:34.153Z,2608
2017-03-12T07:32:34.165Z,2556
2017-03-12T07:33:33.811Z,2548
2017-03-12T07:34:34.476Z,2568
2017-03-12T07:35:34.260Z,2568
2017-03-12T07:36:34.281Z,2580
2017-03-12T07:37:33.942Z,2588
2017-03-12T07:38:34.772Z,2584
2017-03-12T07:39:35.007Z,2600
2017-03-12T07:40:34.805Z,2612
2017-03-12T07:41:34.817Z,2600
2017-03-12T07:42:34.449Z,2592
2017-03-12T07:43:34.895Z,2576
2017-03-12T07:44:35.183Z,2576
2017-03-12T07:45:34.940Z,2568
2017-03-12T07:46:34.152Z,2564
2017-03-12T07:47:34.587Z,2548
2017-03-12T07:48:34.611Z,2536
2017-03-12T07:49:35.290Z,2540
2017-03-12T07:50:34.301Z,2540
2017-03-12T07:51:35.094Z,2536
2017-03-12T07:52:35.126Z,2520
2017-03-12T07:53:35.166Z,2520
2017-03-12T07:54:35.436Z,2504
2017-03-12T07:55:35.685Z,2476
2017-03-12T07:56:34.836Z,2456
2017-03-12T07:57:34.889Z,2444
2017-03-12T07:58:34.894Z,2424
2017-03-12T07:59:35.970Z,2412
2017-03-12T08:00:34.976Z,2404
2017-03-12T08:01:34.989Z,2392
2017-03-12T08:02:35.403Z,2380
2017-03-12T08:03:35.038Z,2368
2017-03-12T08:04:35.721Z,2356
2017-03-12T08:05:35.491Z,2344
2017-03-12T08:06:35.943Z,2328
2017-03-12T08:07:35.545Z,2312
2017-03-12T08:08:35.974Z,2296
2017-03-12T08:09:36.242Z,2288
2017-03-12T08:10:36.055Z,2276
2017-03-12T08:11:35.649Z,2268
2017-03-12T08:12:36.101Z,2252
2017-03-12T08:13:35.713Z,2240
2017-03-12T08:14:35.328Z,2228
2017-03-12T08:15:35.768Z,2212
2017-03-12T08:16:35.383Z,2204
2017-03-12T08:17:35.824Z,2200
2017-03-12T08:18:36.277Z,2208
2017-03-12T08:19:36.270Z,2220
2017-03-12T08:20:35.921Z,2228
2017-03-12T08:21:35.935Z,2248
2017-03-12T08:22:35.603Z,2256
2017-03-12T08:23:36.405Z,2244
2017-03-12T08:24:36.018Z,2232
2017-03-12T08:25:36.038Z,2192
2017-03-12T08:26:36.483Z,2212
2017-03-12T08:27:36.479Z,2216
2017-03-12T08:28:36.141Z,2224
2017-03-12T08:29:35.798Z,2236
2017-03-12T08:30:36.058Z,2244
2017-03-12T08:31:36.627Z,2248
2017-03-12T08:32:36.655Z,2244
2017-03-12T08:33:36.681Z,2260
2017-03-12T08:34:36.705Z,2268
2017-03-12T08:35:36.982Z,2272
2017-03-12T08:36:35.960Z,2280
2017-03-12T08:37:36.406Z,2300
2017-03-12T08:38:36.416Z,2332
2017-03-12T08:39:36.441Z,2416
2017-03-12T08:40:36.714Z,2508
2017-03-12T08:41:36.122Z,2600
2017-03-12T08:42:36.923Z,2748
2017-03-12T08:43:36.956Z,2912
2017-03-12T08:44:36.989Z,3036
2017-03-12T08:45:36.449Z,3120
2017-03-12T08:46:37.051Z,3184
2017-03-12T08:47:37.059Z,3240
2017-03-12T08:48:37.103Z,3340
2017-03-12T08:49:36.321Z,3468
2017-03-12T08:50:37.412Z,3604
2017-03-12T08:51:37.173Z,3688
2017-03-12T08:52:37.199Z,3760
2017-03-12T08:53:36.833Z,3852
2017-03-12T08:54:37.260Z,3860
2017-03-12T08:55:37.133Z,3964
2017-03-12T08:56:36.900Z,4060
2017-03-12T08:57:37.342Z,4108
2017-03-12T08:58:37.370Z,4128
2017-03-12T08:59:37.008Z,4128
2017-03-12T09:00:36.892Z,4052
2017-03-12T09:01:37.449Z,3932
2017-03-12T09:02:37.102Z,3808
2017-03-12T09:03:36.707Z,3680
2017-03-12T09:04:36.744Z,3616
2017-03-12T09:05:37.809Z,3676
2017-03-12T09:06:37.198Z,3648
2017-03-12T09:07:36.845Z,3608
2017-03-12T09:08:37.247Z,3532
2017-03-12T09:09:37.707Z,3500
2017-03-12T09:10:37.573Z,3400
2017-03-12T09:11:37.737Z,3300
2017-03-12T09:12:37.770Z,3372
2017-03-12T09:13:37.802Z,3272
2017-03-12T09:14:37.437Z,3292
2017-03-12T09:15:37.710Z,3308
2017-03-12T09:16:37.092Z,3208
2017-03-12T09:17:37.521Z,3260
2017-03-12T09:18:37.162Z,3200
2017-03-12T09:19:37.968Z,3164
2017-03-12T09:20:38.249Z,3120
2017-03-12T09:21:38.014Z,3100
2017-03-12T09:22:37.245Z,3020
2017-03-12T09:23:38.061Z,2952
2017-03-12T09:24:37.710Z,2948
2017-03-12T09:25:38.411Z,3016
2017-03-12T09:26:37.780Z,2992
2017-03-12T09:27:37.793Z,2980
2017-03-12T09:28:37.417Z,2852
2017-03-12T09:29:37.846Z,2880
2017-03-12T09:30:37.801Z,2844
2017-03-12T09:31:37.108Z,2932
2017-03-12T09:32:37.932Z,2892
2017-03-12T09:33:38.362Z,2720
2017-03-12T09:34:37.630Z,2632
2017-03-12T09:35:38.270Z,2604
2017-03-12T09:36:38.451Z,2540
2017-03-12T09:37:38.463Z,2556
2017-03-12T09:38:38.498Z,2596
2017-03-12T09:39:38.134Z,2576
2017-03-12T09:40:38.810Z,2512
2017-03-12T09:41:37.791Z,2568
2017-03-12T09:42:38.615Z,2532
2017-03-12T09:43:38.630Z,2520
2017-03-12T09:44:38.282Z,2480
2017-03-12T09:45:38.946Z,2460
2017-03-12T09:46:38.740Z,2472
2017-03-12T09:47:38.767Z,2392
2017-03-12T09:48:38.381Z,2416
2017-03-12T09:49:38.822Z,2408
2017-03-12T09:50:39.098Z,2352
2017-03-12T09:51:38.099Z,2356
2017-03-12T09:52:37.710Z,2360
2017-03-12T09:53:37.721Z,2356
2017-03-12T09:54:38.549Z,2396
2017-03-12T09:55:40.730Z,2476
2017-03-12T09:56:39.003Z,2532
2017-03-12T09:57:39.060Z,2592
2017-03-12T09:58:38.660Z,2616
2017-03-12T09:59:39.106Z,2632
2017-03-12T10:00:39.135Z,2632
2017-03-12T10:01:38.363Z,2628
2017-03-12T10:02:38.791Z,2628
2017-03-12T10:03:39.212Z,2632
2017-03-12T10:04:39.249Z,2632
2017-03-12T10:05:38.867Z,2644
2017-03-12T10:06:39.541Z,2660
2017-03-12T10:07:38.935Z,2672
2017-03-12T10:08:39.364Z,2672
2017-03-12T10:09:39.396Z,2676
2017-03-12T10:10:38.642Z,2684
2017-03-12T10:11:38.898Z,2696
2017-03-12T10:12:38.647Z,2708
2017-03-12T10:13:39.112Z,2716
2017-03-12T10:14:39.504Z,2732
2017-03-12T10:15:38.769Z,2752
2017-03-12T10:16:38.630Z,2780
2017-03-12T10:17:38.843Z,2828
2017-03-12T10:18:39.627Z,2876
2017-03-12T10:19:39.261Z,2920
2017-03-12T10:20:39.686Z,2960
2017-03-12T10:21:39.586Z,3000
2017-03-12T10:22:39.734Z,3056
2017-03-12T10:23:38.988Z,3120
2017-03-12T10:24:39.041Z,3212
2017-03-12T10:25:39.845Z,3308
2017-03-12T10:26:39.750Z,3400
2017-03-12T10:27:39.895Z,3492
2017-03-12T10:28:39.907Z,3532
2017-03-12T10:29:39.953Z,3564
2017-03-12T10:30:38.813Z,3564
2017-03-12T10:31:40.274Z,3536
2017-03-12T10:32:39.635Z,3492
2017-03-12T10:33:39.287Z,3444
2017-03-12T10:34:38.926Z,3400
2017-03-12T10:35:39.721Z,3368
2017-03-12T10:36:39.994Z,3344
2017-03-12T10:37:40.168Z,3324
2017-03-12T10:38:39.418Z,3316
2017-03-12T10:39:39.840Z,3304
2017-03-12T10:40:39.052Z,3300
2017-03-12T10:41:40.178Z,3316
2017-03-12T10:42:39.115Z,3336
2017-03-12T10:43:39.572Z,3364
2017-03-12T10:44:39.971Z,3396
2017-03-12T10:45:39.629Z,3424
2017-03-12T10:46:40.681Z,3436
2017-03-12T10:47:40.062Z,3444
2017-03-12T10:48:40.087Z,3456
2017-03-12T10:49:40.107Z,3460
2017-03-12T10:50:40.150Z,3480
2017-03-12T10:51:40.837Z,3500
2017-03-12T10:52:40.630Z,3520
2017-03-12T10:53:40.631Z,3540
2017-03-12T10:54:40.252Z,3556
2017-03-12T10:55:40.690Z,3580
2017-03-12T10:56:40.573Z,3600
2017-03-12T10:57:40.738Z,3616
2017-03-12T10:58:40.774Z,3632
2017-03-12T10:59:40.458Z,3660
2017-03-12T11:00:40.435Z,3688
2017-03-12T11:01:41.117Z,3712
2017-03-12T11:02:40.494Z,3740
2017-03-12T11:03:40.524Z,3764
2017-03-12T11:04:40.961Z,3796
2017-03-12T11:05:40.162Z,3828
2017-03-12T11:06:40.076Z,3868
2017-03-12T11:07:40.233Z,3928
2017-03-12T11:08:40.686Z,4004
2017-03-12T11:09:40.703Z,4092
2017-03-12T11:10:41.109Z,4168
2017-03-12T11:11:41.411Z,4220
2017-03-12T11:12:40.793Z,4312
2017-03-12T11:13:40.806Z,4540
2017-03-12T11:14:40.846Z,4760
2017-03-12T11:15:41.260Z,4848
2017-03-12T11:16:41.560Z,4920
2017-03-12T11:17:41.327Z,5000
2017-03-12T11:18:41.346Z,5128
2017-03-12T11:19:41.379Z,5296
2017-03-12T11:20:41.407Z,5484
2017-03-12T11:21:40.656Z,5684
2017-03-12T11:22:41.465Z,5936
2017-03-12T11:23:40.703Z,6184
2017-03-12T11:24:41.133Z,6412
2017-03-12T11:25:41.552Z,6612
2017-03-12T11:26:41.585Z,6804
2017-03-12T11:27:41.618Z,6864
2017-03-12T11:28:41.234Z,6840
2017-03-12T11:29:41.690Z,6776
2017-03-12T11:30:41.695Z,6668
2017-03-12T11:31:41.328Z,6608
2017-03-12T11:32:41.776Z,6548
2017-03-12T11:33:41.390Z,6576
2017-03-12T11:34:41.418Z,6404
2017-03-12T11:35:41.835Z,6344
2017-03-12T11:36:41.866Z,6660
2017-03-12T11:37:41.496Z,6800
2017-03-12T11:38:41.930Z,6924
2017-03-12T11:39:41.550Z,6984
2017-03-12T11:40:41.582Z,7068
2017-03-12T11:41:42.239Z,7168
2017-03-12T11:42:42.317Z,7264
2017-03-12T11:43:42.057Z,7376
2017-03-12T11:44:41.303Z,7448
2017-03-12T11:45:42.140Z,7444
2017-03-12T11:46:41.797Z,7436
2017-03-12T11:47:42.039Z,7056
2017-03-12T11:48:42.213Z,6840
2017-03-12T11:49:41.873Z,7324
2017-03-12T11:50:41.886Z,7424
2017-03-12T11:51:41.507Z,7364
2017-03-12T11:52:42.204Z,7540
2017-03-12T11:53:41.569Z,7544
2017-03-12T11:54:41.610Z,7436
2017-03-12T11:55:42.026Z,7780
2017-03-12T11:56:41.646Z,7912
2017-03-12T11:57:42.735Z,8140
2017-03-12T11:58:41.725Z,8360
2017-03-12T11:59:42.179Z,8552
2017-03-12T12:00:42.174Z,8740
2017-03-12T12:01:42.611Z,8884
2017-03-12T12:02:42.080Z,9076
2017-03-12T12:03:42.665Z,9356
2017-03-12T12:04:42.713Z,9668
2017-03-12T12:05:42.714Z,10000
2017-03-12T12:06:42.359Z,10428
2017-03-12T12:07:42.632Z,11096
2017-03-12T12:08:42.800Z,12192
2017-03-12T12:09:42.868Z,14160
2017-03-12T12:10:42.483Z,17240
2017-03-12T12:11:42.103Z,20256
2017-03-12T12:12:43.186Z,22560
2017-03-12T12:13:42.185Z,21728
2017-03-12T12:14:43.008Z,21888
2017-03-12T12:15:42.231Z,31680
2017-03-12T12:16:42.271Z,47456
2017-03-12T12:17:43.345Z,50272
2017-03-12T12:18:42.724Z,49760
2017-03-12T12:19:43.157Z,48320
2017-03-12T12:20:42.786Z,47008
2017-03-12T12:21:43.210Z,47712
2017-03-12T12:22:43.499Z,49664
2017-03-12T12:23:42.898Z,50528
2017-03-12T12:24:42.932Z,49600
2017-03-12T12:25:43.159Z,51584
2017-03-12T12:26:43.351Z,54432
2017-03-12T12:27:43.247Z,52416
2017-03-12T12:28:42.657Z,49696
2017-03-12T12:29:42.655Z,50560
2017-03-12T12:30:42.706Z,53088
2017-03-12T12:31:43.130Z,55072
2017-03-12T12:32:43.423Z,54912
2017-03-12T12:33:43.577Z,53632
2017-03-12T12:34:43.234Z,52192
2017-03-12T12:35:43.654Z,50656
2017-03-12T12:36:43.286Z,50560
2017-03-12T12:37:43.960Z,49472
2017-03-12T12:38:43.959Z,48096
2017-03-12T12:39:43.768Z,48448
2017-03-12T12:40:43.397Z,49888
2017-03-12T12:41:44.054Z,48544
2017-03-12T12:42:43.714Z,46752
2017-03-12T12:43:43.895Z,47104
2017-03-12T12:44:43.141Z,47424
2017-03-12T12:45:43.557Z,47840
2017-03-12T12:46:43.606Z,48224
2017-03-12T12:47:43.922Z,49376
2017-03-12T12:48:44.070Z,48960
2017-03-12T12:49:43.688Z,46592
2017-03-12T12:50:43.321Z,47168
2017-03-12T12:51:43.741Z,46784
2017-03-12T12:52:44.429Z,44672
2017-03-12T12:53:43.805Z,44480
2017-03-12T12:54:44.247Z,45152
2017-03-12T12:55:44.273Z,46496
2017-03-12T12:56:43.926Z,50016
2017-03-12T12:57:44.590Z,50240
2017-03-12T12:58:44.367Z,47904
2017-03-12T12:59:43.608Z,46400
2017-03-12T13:00:44.428Z,47744
2017-03-12T13:01:43.673Z,48512
2017-03-12T13:02:44.362Z,49600
2017-03-12T13:03:44.516Z,49376
2017-03-12T13:04:44.571Z,47328
2017-03-12T13:05:44.597Z,45536
2017-03-12T13:06:44.234Z,46048
2017-03-12T13:07:44.516Z,48448
2017-03-12T13:08:44.690Z,48704
2017-03-12T13:09:44.328Z,38560
2017-03-12T13:10:44.771Z,26048
2017-03-12T13:11:44.417Z,20032
2017-03-12T13:12:45.065Z,19424
2017-03-12T13:13:44.870Z,19584
2017-03-12T13:14:44.895Z,20192
2017-03-12T13:15:44.518Z,21216
2017-03-12T13:16:44.208Z,21920
2017-03-12T13:17:45.229Z,22752
2017-03-12T13:18:45.006Z,22976
2017-03-12T13:19:44.254Z,20288
2017-03-12T13:20:45.084Z,15820
2017-03-12T13:21:45.106Z,13552
2017-03-12T13:22:45.402Z,13028
2017-03-12T13:23:45.171Z,12716
2017-03-12T13:24:45.214Z,12668
2017-03-12T13:25:44.839Z,12432
2017-03-12T13:26:45.256Z,12128
2017-03-12T13:27:45.581Z,11944
2017-03-12T13:28:44.938Z,11856
2017-03-12T13:29:45.374Z,11856
2017-03-12T13:30:45.011Z,11828
2017-03-12T13:31:45.445Z,11672
2017-03-12T13:32:45.517Z,11560
2017-03-12T13:33:45.510Z,11432
2017-03-12T13:34:44.718Z,11164
2017-03-12T13:35:45.568Z,10956
2017-03-12T13:36:45.588Z,10880
2017-03-12T13:37:45.225Z,10800
2017-03-12T13:38:44.869Z,10768
2017-03-12T13:39:45.707Z,10804
2017-03-12T13:40:45.712Z,10728
2017-03-12T13:41:45.767Z,10620
2017-03-12T13:42:45.780Z,10452
2017-03-12T13:43:45.810Z,10228
2017-03-12T13:44:45.446Z,10120
2017-03-12T13:45:45.483Z,10232
2017-03-12T13:46:45.920Z,10104
2017-03-12T13:47:45.945Z,9812
2017-03-12T13:48:45.425Z,9752
2017-03-12T13:49:46.006Z,9460
2017-03-12T13:50:45.651Z,9140
2017-03-12T13:51:45.676Z,9088
2017-03-12T13:52:45.703Z,8976